Eva, Tennessee
Current Conditions -  °F | °C
As of 1:55 PM on Friday 24 Oct 2014 (Local Time) from KPHT Reporting Station
Few Clouds Few Clouds  
Wind Chill: 19°   Ceiling: Unl
Heat Index: 19°   Visibility: 10mi
Dew Point: 11°   Wind: 6mph
Humidity: 60%   Direction: 360°N
Pressure: 30.1"   Gusts: NA
Location:  36.06°N, 88°W
Report Text: KPHT 241855Z AUTO 36005KT 10SM FEW034 19/11 A3010 RMK
Loading
Personal Weather Stations






























Interactive Weather Map
Tropical Storm Tracking
New forecast layout! Learn more

10-Day Weather Forecast

Advertisements
Track Severe Weather on mobile